• Join FlightAware (Why Join?)
  • Login
  • US Flag 
04:24PM EDT


 

Airport Tracker/Info


-or-


 

Live Flight TrackerFlight Track Log ✈ N588AC ✈ 04-Jun-2013 ✈ KPSK - KCRE

Flight Track Log - Related Links

Times and Time Zones

All times are in EDT time to prevent confusion due to time zone crossing. See the N588AC flight status page for this flight to view local times or setup timezone preferences in your user account.

Time Position Orientation Groundspeed Altitude Reporting Facility
EDT Latitude Longitude Course Direction KTS MPH feet Rate Location/Type
10:06AM 37.1264 -80.6261 156° South 332 382 4,500  Level Atlanta Center
10:07AM 37.0589 -80.6006 163° South 219 252 7,400 1,980 Climbing Atlanta Center
10:08AM 36.9994 -80.5589 151° Southeast 256 295 8,900 2,040 Climbing Atlanta Center
10:09AM 36.7163 -80.4265 162° South  Level FlightAware Approximate
10:09AM 36.9278 -80.5256 160° South 250 288 11,500  Level Atlanta Center
10:10AM 36.6441 -80.3941 141° Southeast  Level FlightAware Approximate
10:10AM 36.8661 -80.4869 153° Southeast 255 293 13,900  Level Atlanta Center
10:11AM 36.5745 -80.3539 158° South  Level FlightAware Approximate
10:11AM 36.8025 -80.4558 159° South 255 293 15,800  Level Atlanta Center
10:12AM 36.5039 -80.3151 156° South  Level FlightAware Approximate
10:12AM 36.7369 -80.4200 156° South 255 293 17,700  Level Atlanta Center
10:13AM 36.6794 -80.3839 153° Southeast 255 293 19,400 1,140 Climbing Atlanta Center
10:14AM 36.6075 -80.3483 158° South 260 299 20,000 300 Climbing Atlanta Center
10:15AM 36.5247 -80.3006 155° Southeast 293 337 20,100  Climbing Atlanta Center
10:16AM 36.4250 -80.2406 154° Southeast 343 395 20,000 900 Descending Atlanta Center
10:17AM 36.3381 -80.1906 155° Southeast 353 406 22,000 1,500 Climbing Atlanta Center
10:18AM 36.2511 -80.1486 159° South 346 398 23,000 480 Climbing Atlanta Center
10:19AM 36.1619 -80.0989 156° South 340 391 23,000  Level Atlanta Center
10:20AM 36.0750 -80.0542 157° South 354 407 23,000  Level Atlanta Center
10:23AM 35.8581 -79.9361 156° South 371 427 23,000  Level Washington Center
10:24AM 35.7619 -79.8847 157° South 371 427 23,000  Level Washington Center
10:25AM 35.6658 -79.8308 156° South 371 427 23,000  Level Washington Center
10:26AM 35.5694 -79.7825 158° South 371 427 23,000  Level Washington Center
10:27AM 35.4753 -79.7289 155° Southeast 371 427 23,000  Level Washington Center
10:28AM 35.3769 -79.6781 157° South 371 427 23,000  Level Washington Center
10:29AM 35.2825 -79.6275 156° South 371 427 23,000  Level Washington Center
10:30AM 35.1883 -79.5744 155° Southeast 371 427 23,000  Level Washington Center
10:31AM 35.0944 -79.5164 153° Southeast 376 433 23,000  Level Washington Center
10:32AM 35.0003 -79.4586 153° Southeast 376 433 23,000  Level Washington Center
10:33AM 34.9061 -79.3983 152° Southeast 376 433 23,000 -420 Level Washington Center
10:35AM 34.7003 -79.2689 153° Southeast 373 429 21,700 -1,080 Descending Jacksonville Center
10:36AM 34.6108 -79.2122 152° Southeast 373 429 19,700 -2,160 Descending Jacksonville Center
10:37AM 34.5239 -79.1603 154° Southeast 363 418 17,400 -2,340 Descending Jacksonville Center
10:38AM 34.4369 -79.1114 155° Southeast 351 404 15,100 -2,220 Descending Jacksonville Center
10:39AM 34.3539 -79.0569 152° Southeast 345 397 13,000 -2,160 Descending Jacksonville Center
10:40AM 34.2672 -79.0181 160° South 339 390 10,800 -2,160 Descending Jacksonville Center
10:41AM 34.1872 -78.9967 168° South 332 382 8,700 -2,160 Descending Jacksonville Center
10:42AM 34.1053 -78.9778 169° South 312 359 6,500 -2,160 Descending Jacksonville Center
10:43AM 34.0278 -78.9636 171° South 299 344 4,400 -1,860 Descending Jacksonville Center
10:44AM 33.9658 -78.9164 148° Southeast 280 322 2,800 -1,500 Descending Jacksonville Center
10:45AM 33.9081 -78.8739 149° Southeast 257 296 1,500 -1,320 Descending Jacksonville Center